sensor_id;sensor_type;location;lat;lon;timestamp;pressure;altitude;pressure_sealevel;temperature;humidity
79591;BME280;69070;51.598;-3.776;2023-04-06T00:00:48;101407.89;;;7.13;76.44
79591;BME280;69070;51.598;-3.776;2023-04-06T00:03:13;101408.84;;;6.76;78.83
79591;BME280;69070;51.598;-3.776;2023-04-06T00:05:38;101404.31;;;6.84;77.35
79591;BME280;69070;51.598;-3.776;2023-04-06T00:08:03;101405.76;;;7.21;77.46
79591;BME280;69070;51.598;-3.776;2023-04-06T00:10:28;101402.86;;;6.91;77.06
79591;BME280;69070;51.598;-3.776;2023-04-06T00:12:54;101403.91;;;6.60;78.12
79591;BME280;69070;51.598;-3.776;2023-04-06T00:15:18;101402.95;;;6.34;79.46
79591;BME280;69070;51.598;-3.776;2023-04-06T00:17:43;101401.63;;;6.54;81.06
79591;BME280;69070;51.598;-3.776;2023-04-06T00:20:09;101403.24;;;5.85;82.73
79591;BME280;69070;51.598;-3.776;2023-04-06T00:22:34;101401.15;;;6.19;80.63
79591;BME280;69070;51.598;-3.776;2023-04-06T00:24:59;101400.07;;;6.61;79.28
79591;BME280;69070;51.598;-3.776;2023-04-06T00:27:24;101395.44;;;7.19;76.15
79591;BME280;69070;51.598;-3.776;2023-04-06T00:29:49;101394.96;;;7.32;74.68
79591;BME280;69070;51.598;-3.776;2023-04-06T00:32:14;101392.64;;;6.52;78.00
79591;BME280;69070;51.598;-3.776;2023-04-06T00:34:40;101396.51;;;5.57;81.89
79591;BME280;69070;51.598;-3.776;2023-04-06T00:37:11;101395.20;;;7.18;76.66
79591;BME280;69070;51.598;-3.776;2023-04-06T00:39:30;101393.38;;;6.69;76.98
79591;BME280;69070;51.598;-3.776;2023-04-06T00:41:55;101390.51;;;7.02;74.32
79591;BME280;69070;51.598;-3.776;2023-04-06T00:44:21;101387.75;;;7.20;74.87
79591;BME280;69070;51.598;-3.776;2023-04-06T00:46:45;101389.28;;;6.26;78.35
79591;BME280;69070;51.598;-3.776;2023-04-06T00:49:10;101388.73;;;7.04;76.22
79591;BME280;69070;51.598;-3.776;2023-04-06T00:51:36;101387.80;;;7.53;74.34
79591;BME280;69070;51.598;-3.776;2023-04-06T00:54:01;101389.13;;;6.76;77.41
79591;BME280;69070;51.598;-3.776;2023-04-06T00:56:26;101392.24;;;6.39;79.16
79591;BME280;69070;51.598;-3.776;2023-04-06T00:58:51;101391.77;;;7.16;77.04
79591;BME280;69070;51.598;-3.776;2023-04-06T01:01:16;101389.11;;;6.70;77.92
79591;BME280;69070;51.598;-3.776;2023-04-06T01:03:42;101384.79;;;7.34;74.47
79591;BME280;69070;51.598;-3.776;2023-04-06T01:06:07;101383.43;;;6.85;75.99
79591;BME280;69070;51.598;-3.776;2023-04-06T01:08:32;101380.68;;;6.99;75.23
79591;BME280;69070;51.598;-3.776;2023-04-06T01:10:59;101381.50;;;7.12;75.88
79591;BME280;69070;51.598;-3.776;2023-04-06T01:13:23;101381.22;;;6.88;76.49
79591;BME280;69070;51.598;-3.776;2023-04-06T01:15:48;101376.38;;;6.89;77.90
79591;BME280;69070;51.598;-3.776;2023-04-06T01:18:13;101371.71;;;7.20;75.92
79591;BME280;69070;51.598;-3.776;2023-04-06T01:20:38;101371.93;;;6.77;77.58
79591;BME280;69070;51.598;-3.776;2023-04-06T01:23:03;101373.73;;;6.10;79.40
79591;BME280;69070;51.598;-3.776;2023-04-06T01:25:28;101365.57;;;6.77;77.08
79591;BME280;69070;51.598;-3.776;2023-04-06T01:27:53;101361.52;;;7.12;74.98
79591;BME280;69070;51.598;-3.776;2023-04-06T01:30:19;101361.59;;;6.95;75.60
79591;BME280;69070;51.598;-3.776;2023-04-06T01:32:44;101355.99;;;7.81;72.89
79591;BME280;69070;51.598;-3.776;2023-04-06T01:35:09;101352.68;;;7.53;72.35
79591;BME280;69070;51.598;-3.776;2023-04-06T01:37:34;101348.46;;;7.40;72.48
79591;BME280;69070;51.598;-3.776;2023-04-06T01:39:59;101341.36;;;7.82;71.46
79591;BME280;69070;51.598;-3.776;2023-04-06T01:42:24;101336.01;;;7.28;72.67
79591;BME280;69070;51.598;-3.776;2023-04-06T01:44:49;101329.89;;;7.59;72.03
79591;BME280;69070;51.598;-3.776;2023-04-06T01:47:14;101328.63;;;8.02;70.95
79591;BME280;69070;51.598;-3.776;2023-04-06T01:49:39;101318.85;;;8.08;70.29
79591;BME280;69070;51.598;-3.776;2023-04-06T01:52:04;101318.18;;;7.93;71.36
79591;BME280;69070;51.598;-3.776;2023-04-06T01:54:29;101307.37;;;8.02;69.39
79591;BME280;69070;51.598;-3.776;2023-04-06T01:56:55;101305.20;;;7.72;71.22
79591;BME280;69070;51.598;-3.776;2023-04-06T01:59:20;101307.22;;;7.65;71.22
79591;BME280;69070;51.598;-3.776;2023-04-06T02:01:45;101305.56;;;7.86;70.88
79591;BME280;69070;51.598;-3.776;2023-04-06T02:04:10;101302.00;;;6.97;73.98
79591;BME280;69070;51.598;-3.776;2023-04-06T02:06:35;101296.78;;;7.49;72.63
79591;BME280;69070;51.598;-3.776;2023-04-06T02:09:01;101292.44;;;7.23;74.29
79591;BME280;69070;51.598;-3.776;2023-04-06T02:11:26;101288.41;;;7.13;74.24
79591;BME280;69070;51.598;-3.776;2023-04-06T02:13:51;101278.39;;;7.68;72.98
79591;BME280;69070;51.598;-3.776;2023-04-06T02:16:17;101277.14;;;7.37;73.60
79591;BME280;69070;51.598;-3.776;2023-04-06T02:18:42;101266.39;;;7.08;73.08
79591;BME280;69070;51.598;-3.776;2023-04-06T02:21:08;101264.82;;;7.28;72.42
79591;BME280;69070;51.598;-3.776;2023-04-06T02:23:34;101271.72;;;7.14;73.62
79591;BME280;69070;51.598;-3.776;2023-04-06T02:25:59;101270.13;;;7.07;74.45
79591;BME280;69070;51.598;-3.776;2023-04-06T02:28:25;101267.76;;;7.32;73.88
79591;BME280;69070;51.598;-3.776;2023-04-06T02:30:50;101265.25;;;6.70;75.48
79591;BME280;69070;51.598;-3.776;2023-04-06T02:33:15;101259.49;;;5.57;81.92
79591;BME280;69070;51.598;-3.776;2023-04-06T02:35:41;101262.24;;;6.01;80.98
79591;BME280;69070;51.598;-3.776;2023-04-06T02:38:06;101264.30;;;5.79;82.53
79591;BME280;69070;51.598;-3.776;2023-04-06T02:40:31;101263.68;;;6.01;82.30
79591;BME280;69070;51.598;-3.776;2023-04-06T02:42:56;101258.95;;;6.06;81.44
79591;BME280;69070;51.598;-3.776;2023-04-06T02:45:22;101258.86;;;5.56;82.02
79591;BME280;69070;51.598;-3.776;2023-04-06T02:47:47;101257.77;;;6.48;78.88
79591;BME280;69070;51.598;-3.776;2023-04-06T02:50:12;101238.16;;;6.02;78.63
79591;BME280;69070;51.598;-3.776;2023-04-06T02:52:37;101239.81;;;7.33;73.00
79591;BME280;69070;51.598;-3.776;2023-04-06T02:55:03;101248.25;;;6.98;75.41
79591;BME280;69070;51.598;-3.776;2023-04-06T02:57:28;101244.06;;;6.40;77.73
79591;BME280;69070;51.598;-3.776;2023-04-06T02:59:53;101243.60;;;6.61;77.42
79591;BME280;69070;51.598;-3.776;2023-04-06T03:02:19;101239.78;;;6.37;77.66
79591;BME280;69070;51.598;-3.776;2023-04-06T03:04:44;101241.38;;;6.39;78.27
79591;BME280;69070;51.598;-3.776;2023-04-06T03:07:09;101239.92;;;6.26;78.58
79591;BME280;69070;51.598;-3.776;2023-04-06T03:09:37;101229.89;;;6.64;75.98
79591;BME280;69070;51.598;-3.776;2023-04-06T03:12:00;101229.21;;;6.99;74.35
79591;BME280;69070;51.598;-3.776;2023-04-06T03:14:27;101229.88;;;7.59;73.19
79591;BME280;69070;51.598;-3.776;2023-04-06T03:16:51;101231.34;;;6.94;74.92
79591;BME280;69070;51.598;-3.776;2023-04-06T03:19:16;101230.32;;;7.00;74.93
79591;BME280;69070;51.598;-3.776;2023-04-06T03:21:42;101219.26;;;7.33;72.56
79591;BME280;69070;51.598;-3.776;2023-04-06T03:24:08;101217.66;;;7.37;72.29
79591;BME280;69070;51.598;-3.776;2023-04-06T03:26:33;101214.80;;;7.81;72.04
79591;BME280;69070;51.598;-3.776;2023-04-06T03:28:58;101214.55;;;7.11;74.41
79591;BME280;69070;51.598;-3.776;2023-04-06T03:31:23;101210.61;;;7.45;73.32
79591;BME280;69070;51.598;-3.776;2023-04-06T03:33:49;101211.94;;;7.36;73.54
79591;BME280;69070;51.598;-3.776;2023-04-06T03:36:14;101217.64;;;7.80;71.18
79591;BME280;69070;51.598;-3.776;2023-04-06T03:38:39;101226.31;;;6.78;74.56
79591;BME280;69070;51.598;-3.776;2023-04-06T03:41:04;101226.52;;;7.13;75.03
79591;BME280;69070;51.598;-3.776;2023-04-06T03:43:30;101222.42;;;6.86;75.47
79591;BME280;69070;51.598;-3.776;2023-04-06T03:45:56;101208.39;;;7.43;72.80
79591;BME280;69070;51.598;-3.776;2023-04-06T03:48:21;101207.11;;;6.03;78.00
79591;BME280;69070;51.598;-3.776;2023-04-06T03:50:46;101207.61;;;6.56;77.99
79591;BME280;69070;51.598;-3.776;2023-04-06T03:53:12;101208.77;;;6.21;76.48
79591;BME280;69070;51.598;-3.776;2023-04-06T03:55:37;101207.78;;;6.50;77.15
79591;BME280;69070;51.598;-3.776;2023-04-06T03:58:03;101202.22;;;7.18;74.36
79591;BME280;69070;51.598;-3.776;2023-04-06T04:00:28;101209.75;;;6.66;77.52
79591;BME280;69070;51.598;-3.776;2023-04-06T04:02:54;101209.82;;;5.05;85.33
79591;BME280;69070;51.598;-3.776;2023-04-06T04:05:19;101211.73;;;6.44;79.94
79591;BME280;69070;51.598;-3.776;2023-04-06T04:07:44;101213.06;;;7.13;76.38
79591;BME280;69070;51.598;-3.776;2023-04-06T04:10:10;101217.08;;;6.12;79.06
79591;BME280;69070;51.598;-3.776;2023-04-06T04:12:35;101217.47;;;5.23;84.70
79591;BME280;69070;51.598;-3.776;2023-04-06T04:15:01;101217.78;;;5.53;86.42
79591;BME280;69070;51.598;-3.776;2023-04-06T04:17:26;101222.36;;;5.39;86.04
79591;BME280;69070;51.598;-3.776;2023-04-06T04:19:51;101219.12;;;5.57;84.90
79591;BME280;69070;51.598;-3.776;2023-04-06T04:22:17;101221.74;;;6.73;77.75
79591;BME280;69070;51.598;-3.776;2023-04-06T04:24:42;101221.58;;;6.96;74.31
79591;BME280;69070;51.598;-3.776;2023-04-06T04:27:08;101222.30;;;7.38;72.91
79591;BME280;69070;51.598;-3.776;2023-04-06T04:29:33;101230.84;;;7.11;75.61
79591;BME280;69070;51.598;-3.776;2023-04-06T04:31:58;101234.37;;;6.68;77.26
79591;BME280;69070;51.598;-3.776;2023-04-06T04:34:24;101234.51;;;7.03;75.03
79591;BME280;69070;51.598;-3.776;2023-04-06T04:36:49;101236.42;;;6.73;77.03
79591;BME280;69070;51.598;-3.776;2023-04-06T04:39:14;101238.34;;;6.78;77.63
79591;BME280;69070;51.598;-3.776;2023-04-06T04:41:40;101240.38;;;6.19;77.67
79591;BME280;69070;51.598;-3.776;2023-04-06T04:44:05;101242.39;;;6.86;76.62
79591;BME280;69070;51.598;-3.776;2023-04-06T04:46:30;101242.48;;;6.63;76.55
79591;BME280;69070;51.598;-3.776;2023-04-06T04:48:56;101242.99;;;7.24;75.06
79591;BME280;69070;51.598;-3.776;2023-04-06T04:51:22;101247.73;;;6.04;77.18
79591;BME280;69070;51.598;-3.776;2023-04-06T04:53:47;101252.16;;;6.53;76.24
79591;BME280;69070;51.598;-3.776;2023-04-06T04:56:12;101255.11;;;7.48;72.53
79591;BME280;69070;51.598;-3.776;2023-04-06T04:58:38;101255.88;;;7.32;71.88
79591;BME280;69070;51.598;-3.776;2023-04-06T05:01:03;101256.94;;;7.22;71.89
79591;BME280;69070;51.598;-3.776;2023-04-06T05:03:28;101263.95;;;7.13;72.32
79591;BME280;69070;51.598;-3.776;2023-04-06T05:05:54;101272.52;;;6.47;75.21
79591;BME280;69070;51.598;-3.776;2023-04-06T05:08:19;101271.57;;;5.48;80.89
79591;BME280;69070;51.598;-3.776;2023-04-06T05:10:45;101270.55;;;5.26;82.96
79591;BME280;69070;51.598;-3.776;2023-04-06T05:13:10;101269.83;;;5.18;82.32
79591;BME280;69070;51.598;-3.776;2023-04-06T05:15:35;101281.10;;;5.15;82.82
79591;BME280;69070;51.598;-3.776;2023-04-06T05:18:02;101287.26;;;4.81;82.27
79591;BME280;69070;51.598;-3.776;2023-04-06T05:20:26;101286.15;;;4.96;83.95
79591;BME280;69070;51.598;-3.776;2023-04-06T05:22:51;101298.06;;;4.75;84.90
79591;BME280;69070;51.598;-3.776;2023-04-06T05:25:16;101300.70;;;5.69;80.65
79591;BME280;69070;51.598;-3.776;2023-04-06T05:27:42;101297.80;;;6.43;76.26
79591;BME280;69070;51.598;-3.776;2023-04-06T05:30:08;101303.33;;;6.33;75.36
79591;BME280;69070;51.598;-3.776;2023-04-06T05:32:32;101297.35;;;6.21;75.19
79591;BME280;69070;51.598;-3.776;2023-04-06T05:34:58;101298.81;;;5.66;76.50
79591;BME280;69070;51.598;-3.776;2023-04-06T05:37:23;101306.37;;;6.56;74.22
79591;BME280;69070;51.598;-3.776;2023-04-06T05:39:48;101313.76;;;7.64;70.19
79591;BME280;69070;51.598;-3.776;2023-04-06T05:42:13;101313.91;;;7.11;69.83
79591;BME280;69070;51.598;-3.776;2023-04-06T05:44:39;101312.56;;;7.83;68.29
79591;BME280;69070;51.598;-3.776;2023-04-06T05:47:04;101318.41;;;6.14;72.64
79591;BME280;69070;51.598;-3.776;2023-04-06T05:49:29;101316.29;;;6.72;71.73
79591;BME280;69070;51.598;-3.776;2023-04-06T05:51:54;101325.04;;;5.66;74.13
79591;BME280;69070;51.598;-3.776;2023-04-06T05:54:19;101328.09;;;5.49;81.09
79591;BME280;69070;51.598;-3.776;2023-04-06T05:56:45;101335.46;;;6.62;72.86
79591;BME280;69070;51.598;-3.776;2023-04-06T05:59:10;101334.82;;;7.69;69.36
79591;BME280;69070;51.598;-3.776;2023-04-06T06:01:36;101333.02;;;7.20;68.49
79591;BME280;69070;51.598;-3.776;2023-04-06T06:04:01;101340.16;;;5.43;75.70
79591;BME280;69070;51.598;-3.776;2023-04-06T06:06:28;101334.90;;;6.95;71.70
79591;BME280;69070;51.598;-3.776;2023-04-06T06:08:52;101341.54;;;5.05;78.59
79591;BME280;69070;51.598;-3.776;2023-04-06T06:11:17;101345.94;;;4.86;81.75
79591;BME280;69070;51.598;-3.776;2023-04-06T06:13:42;101340.59;;;5.54;76.33
79591;BME280;69070;51.598;-3.776;2023-04-06T06:16:07;101343.19;;;5.57;76.70
79591;BME280;69070;51.598;-3.776;2023-04-06T06:18:33;101344.30;;;6.08;73.98
79591;BME280;69070;51.598;-3.776;2023-04-06T06:20:58;101348.55;;;7.10;70.38
79591;BME280;69070;51.598;-3.776;2023-04-06T06:23:24;101352.29;;;7.48;68.05
79591;BME280;69070;51.598;-3.776;2023-04-06T06:25:49;101350.54;;;7.95;67.07
79591;BME280;69070;51.598;-3.776;2023-04-06T06:28:14;101351.06;;;7.61;68.54
79591;BME280;69070;51.598;-3.776;2023-04-06T06:30:39;101350.43;;;7.43;67.90
79591;BME280;69070;51.598;-3.776;2023-04-06T06:33:04;101351.44;;;7.17;69.35
79591;BME280;69070;51.598;-3.776;2023-04-06T06:35:30;101351.35;;;7.14;70.28
79591;BME280;69070;51.598;-3.776;2023-04-06T06:37:55;101357.62;;;7.48;67.91
79591;BME280;69070;51.598;-3.776;2023-04-06T06:40:20;101359.27;;;6.23;72.55
79591;BME280;69070;51.598;-3.776;2023-04-06T06:42:46;101358.58;;;6.53;71.75
79591;BME280;69070;51.598;-3.776;2023-04-06T06:45:11;101358.59;;;5.67;75.85
79591;BME280;69070;51.598;-3.776;2023-04-06T06:47:36;101360.60;;;5.12;78.12
79591;BME280;69070;51.598;-3.776;2023-04-06T06:50:01;101361.18;;;4.84;81.71
79591;BME280;69070;51.598;-3.776;2023-04-06T06:52:27;101370.41;;;4.82;84.53
79591;BME280;69070;51.598;-3.776;2023-04-06T06:54:52;101366.73;;;4.99;85.19
79591;BME280;69070;51.598;-3.776;2023-04-06T06:57:17;101368.21;;;4.74;85.83
79591;BME280;69070;51.598;-3.776;2023-04-06T06:59:42;101371.21;;;4.74;86.85
79591;BME280;69070;51.598;-3.776;2023-04-06T07:02:07;101366.59;;;5.15;82.17
79591;BME280;69070;51.598;-3.776;2023-04-06T07:04:33;101365.29;;;6.46;76.70
79591;BME280;69070;51.598;-3.776;2023-04-06T07:06:59;101366.42;;;6.49;72.94
79591;BME280;69070;51.598;-3.776;2023-04-06T07:09:24;101367.72;;;6.70;73.81
79591;BME280;69070;51.598;-3.776;2023-04-06T07:11:49;101370.94;;;7.46;70.97
79591;BME280;69070;51.598;-3.776;2023-04-06T07:14:15;101371.29;;;6.70;73.17
79591;BME280;69070;51.598;-3.776;2023-04-06T07:16:40;101378.05;;;6.21;75.52
79591;BME280;69070;51.598;-3.776;2023-04-06T07:19:05;101379.06;;;6.58;74.62
79591;BME280;69070;51.598;-3.776;2023-04-06T07:21:31;101374.89;;;5.49;79.15
79591;BME280;69070;51.598;-3.776;2023-04-06T07:23:56;101385.23;;;5.13;82.61
79591;BME280;69070;51.598;-3.776;2023-04-06T07:26:21;101383.53;;;5.14;83.67
79591;BME280;69070;51.598;-3.776;2023-04-06T07:28:46;101388.11;;;5.10;83.88
79591;BME280;69070;51.598;-3.776;2023-04-06T07:31:12;101381.55;;;5.01;84.11
79591;BME280;69070;51.598;-3.776;2023-04-06T07:33:37;101381.19;;;4.96;83.33
79591;BME280;69070;51.598;-3.776;2023-04-06T07:36:04;101383.88;;;5.23;82.90
79591;BME280;69070;51.598;-3.776;2023-04-06T07:38:28;101387.18;;;5.17;83.06
79591;BME280;69070;51.598;-3.776;2023-04-06T07:40:54;101386.56;;;5.15;83.81
79591;BME280;69070;51.598;-3.776;2023-04-06T07:43:19;101386.02;;;5.41;80.71
79591;BME280;69070;51.598;-3.776;2023-04-06T07:45:44;101386.75;;;5.16;79.63
79591;BME280;69070;51.598;-3.776;2023-04-06T07:48:10;101390.40;;;5.17;80.43
79591;BME280;69070;51.598;-3.776;2023-04-06T07:50:36;101386.18;;;5.18;81.67
79591;BME280;69070;51.598;-3.776;2023-04-06T07:53:01;101386.98;;;6.37;77.70
79591;BME280;69070;51.598;-3.776;2023-04-06T07:55:27;101389.66;;;6.49;75.14
79591;BME280;69070;51.598;-3.776;2023-04-06T07:57:52;101388.56;;;5.87;76.92
79591;BME280;69070;51.598;-3.776;2023-04-06T08:00:18;101392.18;;;6.41;76.87
79591;BME280;69070;51.598;-3.776;2023-04-06T08:02:43;101394.91;;;5.80;77.58
79591;BME280;69070;51.598;-3.776;2023-04-06T08:05:09;101395.13;;;6.16;76.51
79591;BME280;69070;51.598;-3.776;2023-04-06T08:07:34;101391.25;;;6.85;73.29
79591;BME280;69070;51.598;-3.776;2023-04-06T08:10:00;101388.49;;;6.27;74.47
79591;BME280;69070;51.598;-3.776;2023-04-06T08:12:25;101391.81;;;6.77;73.37
79591;BME280;69070;51.598;-3.776;2023-04-06T08:14:51;101389.20;;;7.32;70.90
79591;BME280;69070;51.598;-3.776;2023-04-06T08:17:16;101394.92;;;6.44;75.07
79591;BME280;69070;51.598;-3.776;2023-04-06T08:19:42;101392.71;;;6.62;74.51
79591;BME280;69070;51.598;-3.776;2023-04-06T08:22:06;101392.95;;;6.59;74.94
79591;BME280;69070;51.598;-3.776;2023-04-06T08:24:32;101391.42;;;5.84;77.33
79591;BME280;69070;51.598;-3.776;2023-04-06T08:26:57;101393.27;;;5.50;78.65
79591;BME280;69070;51.598;-3.776;2023-04-06T08:29:24;101384.91;;;5.69;78.80
79591;BME280;69070;51.598;-3.776;2023-04-06T08:31:48;101390.44;;;6.02;78.34
79591;BME280;69070;51.598;-3.776;2023-04-06T08:34:13;101393.65;;;5.74;77.82
79591;BME280;69070;51.598;-3.776;2023-04-06T08:36:39;101390.13;;;5.74;78.93
79591;BME280;69070;51.598;-3.776;2023-04-06T08:39:04;101394.09;;;5.96;77.73
79591;BME280;69070;51.598;-3.776;2023-04-06T08:41:29;101397.32;;;6.43;76.49
79591;BME280;69070;51.598;-3.776;2023-04-06T08:43:57;101399.06;;;6.61;76.60
79591;BME280;69070;51.598;-3.776;2023-04-06T08:46:21;101397.18;;;6.42;74.57
79591;BME280;69070;51.598;-3.776;2023-04-06T08:48:47;101396.33;;;7.09;72.37
79591;BME280;69070;51.598;-3.776;2023-04-06T08:51:12;101397.63;;;6.29;75.47
79591;BME280;69070;51.598;-3.776;2023-04-06T08:53:37;101405.54;;;6.20;75.95
79591;BME280;69070;51.598;-3.776;2023-04-06T08:56:03;101396.23;;;5.76;78.04
79591;BME280;69070;51.598;-3.776;2023-04-06T08:58:31;101395.11;;;6.32;75.68
79591;BME280;69070;51.598;-3.776;2023-04-06T09:00:54;101395.92;;;6.44;75.77
79591;BME280;69070;51.598;-3.776;2023-04-06T09:03:20;101391.97;;;6.26;76.31
79591;BME280;69070;51.598;-3.776;2023-04-06T09:05:44;101394.57;;;6.22;76.29
79591;BME280;69070;51.598;-3.776;2023-04-06T09:08:09;101393.43;;;6.71;76.13
79591;BME280;69070;51.598;-3.776;2023-04-06T09:10:34;101398.12;;;6.51;75.23
79591;BME280;69070;51.598;-3.776;2023-04-06T09:13:04;101403.27;;;5.84;77.69
79591;BME280;69070;51.598;-3.776;2023-04-06T09:15:25;101405.44;;;6.04;74.02
79591;BME280;69070;51.598;-3.776;2023-04-06T09:17:50;101408.53;;;5.54;74.60
79591;BME280;69070;51.598;-3.776;2023-04-06T09:20:22;101416.51;;;5.40;74.59
79591;BME280;69070;51.598;-3.776;2023-04-06T09:22:41;101406.95;;;5.71;75.38
79591;BME280;69070;51.598;-3.776;2023-04-06T09:25:08;101412.00;;;5.47;77.81
79591;BME280;69070;51.598;-3.776;2023-04-06T09:27:32;101418.02;;;6.35;74.63
79591;BME280;69070;51.598;-3.776;2023-04-06T09:30:02;101417.70;;;6.47;73.48
79591;BME280;69070;51.598;-3.776;2023-04-06T09:32:22;101416.77;;;5.88;73.68
79591;BME280;69070;51.598;-3.776;2023-04-06T09:34:47;101424.33;;;6.67;73.89
79591;BME280;69070;51.598;-3.776;2023-04-06T09:37:13;101421.20;;;7.08;71.05
79591;BME280;69070;51.598;-3.776;2023-04-06T09:39:37;101424.92;;;6.56;70.48
79591;BME280;69070;51.598;-3.776;2023-04-06T09:42:02;101427.67;;;6.56;72.12
79591;BME280;69070;51.598;-3.776;2023-04-06T09:44:27;101424.45;;;6.71;72.18
79591;BME280;69070;51.598;-3.776;2023-04-06T09:46:53;101425.93;;;6.94;71.40
79591;BME280;69070;51.598;-3.776;2023-04-06T09:49:18;101425.83;;;6.65;71.24
79591;BME280;69070;51.598;-3.776;2023-04-06T09:51:46;101427.28;;;6.30;73.17
79591;BME280;69070;51.598;-3.776;2023-04-06T09:54:09;101435.51;;;6.97;71.36
79591;BME280;69070;51.598;-3.776;2023-04-06T09:56:39;101441.44;;;6.17;70.66
79591;BME280;69070;51.598;-3.776;2023-04-06T09:59:02;101442.56;;;6.27;70.66
79591;BME280;69070;51.598;-3.776;2023-04-06T10:01:26;101443.26;;;6.38;71.00
79591;BME280;69070;51.598;-3.776;2023-04-06T10:03:54;101443.17;;;6.50;69.55
79591;BME280;69070;51.598;-3.776;2023-04-06T10:06:15;101446.29;;;7.16;70.00
79591;BME280;69070;51.598;-3.776;2023-04-06T10:08:40;101446.07;;;6.67;66.07
79591;BME280;69070;51.598;-3.776;2023-04-06T10:11:04;101449.72;;;6.19;68.14
79591;BME280;69070;51.598;-3.776;2023-04-06T10:13:29;101448.46;;;6.68;68.42
79591;BME280;69070;51.598;-3.776;2023-04-06T10:15:54;101445.92;;;6.46;70.69
79591;BME280;69070;51.598;-3.776;2023-04-06T10:18:19;101459.85;;;6.69;69.32
79591;BME280;69070;51.598;-3.776;2023-04-06T10:20:49;101457.09;;;6.84;68.02
79591;BME280;69070;51.598;-3.776;2023-04-06T10:23:12;101454.48;;;7.55;66.27
79591;BME280;69070;51.598;-3.776;2023-04-06T10:25:35;101460.70;;;7.21;68.80
79591;BME280;69070;51.598;-3.776;2023-04-06T10:28:00;101453.04;;;6.63;68.43
79591;BME280;69070;51.598;-3.776;2023-04-06T10:30:25;101461.40;;;7.11;69.26
79591;BME280;69070;51.598;-3.776;2023-04-06T10:32:50;101460.80;;;7.19;66.54
79591;BME280;69070;51.598;-3.776;2023-04-06T10:35:16;101459.11;;;7.40;66.78
79591;BME280;69070;51.598;-3.776;2023-04-06T10:37:49;101461.16;;;7.20;66.01
79591;BME280;69070;51.598;-3.776;2023-04-06T10:40:06;101464.79;;;7.50;66.55
79591;BME280;69070;51.598;-3.776;2023-04-06T10:42:37;101481.54;;;6.48;69.59
79591;BME280;69070;51.598;-3.776;2023-04-06T10:44:56;101486.57;;;6.82;66.27
79591;BME280;69070;51.598;-3.776;2023-04-06T10:47:21;101478.50;;;6.72;66.55
79591;BME280;69070;51.598;-3.776;2023-04-06T10:49:46;101488.07;;;6.76;63.05
79591;BME280;69070;51.598;-3.776;2023-04-06T10:52:11;101491.35;;;5.98;64.92
79591;BME280;69070;51.598;-3.776;2023-04-06T10:54:41;101488.04;;;6.70;64.08
79591;BME280;69070;51.598;-3.776;2023-04-06T10:57:01;101489.65;;;6.73;64.43
79591;BME280;69070;51.598;-3.776;2023-04-06T10:59:29;101491.40;;;7.17;64.27
79591;BME280;69070;51.598;-3.776;2023-04-06T11:01:51;101492.11;;;7.44;66.09
79591;BME280;69070;51.598;-3.776;2023-04-06T11:04:17;101487.91;;;7.30;65.14
79591;BME280;69070;51.598;-3.776;2023-04-06T11:06:47;101487.14;;;7.88;62.49
79591;BME280;69070;51.598;-3.776;2023-04-06T11:09:08;101485.32;;;7.79;61.84
79591;BME280;69070;51.598;-3.776;2023-04-06T11:11:32;101479.35;;;7.09;64.55
79591;BME280;69070;51.598;-3.776;2023-04-06T11:13:58;101476.85;;;7.21;66.45
79591;BME280;69070;51.598;-3.776;2023-04-06T11:16:23;101476.62;;;7.77;67.10
79591;BME280;69070;51.598;-3.776;2023-04-06T11:18:49;101472.37;;;7.05;68.81
79591;BME280;69070;51.598;-3.776;2023-04-06T11:21:12;101467.50;;;7.23;68.85
79591;BME280;69070;51.598;-3.776;2023-04-06T11:23:37;101482.07;;;7.39;70.01
79591;BME280;69070;51.598;-3.776;2023-04-06T11:26:02;101488.25;;;8.15;67.45
79591;BME280;69070;51.598;-3.776;2023-04-06T11:28:27;101523.70;;;7.77;65.40
79591;BME280;69070;51.598;-3.776;2023-04-06T11:30:52;101558.62;;;6.27;70.45
79591;BME280;69070;51.598;-3.776;2023-04-06T11:33:21;101530.77;;;6.53;71.91
79591;BME280;69070;51.598;-3.776;2023-04-06T11:35:42;101520.65;;;5.17;73.08
79591;BME280;69070;51.598;-3.776;2023-04-06T11:38:07;101520.83;;;4.95;71.63
79591;BME280;69070;51.598;-3.776;2023-04-06T11:40:32;101519.45;;;5.16;75.73
79591;BME280;69070;51.598;-3.776;2023-04-06T11:42:58;101511.62;;;5.62;74.04
79591;BME280;69070;51.598;-3.776;2023-04-06T11:45:23;101507.64;;;6.30;71.90
79591;BME280;69070;51.598;-3.776;2023-04-06T11:47:56;101506.88;;;5.09;72.45
79591;BME280;69070;51.598;-3.776;2023-04-06T11:50:14;101508.86;;;5.37;74.39
79591;BME280;69070;51.598;-3.776;2023-04-06T11:52:39;101513.04;;;5.53;75.01
79591;BME280;69070;51.598;-3.776;2023-04-06T11:55:12;101510.81;;;5.41;76.01
79591;BME280;69070;51.598;-3.776;2023-04-06T11:57:29;101509.88;;;5.41;72.78
79591;BME280;69070;51.598;-3.776;2023-04-06T11:59:54;101501.55;;;5.78;73.49
79591;BME280;69070;51.598;-3.776;2023-04-06T12:02:19;101503.27;;;5.76;70.40
79591;BME280;69070;51.598;-3.776;2023-04-06T12:04:44;101498.98;;;6.30;71.41
79591;BME280;69070;51.598;-3.776;2023-04-06T12:07:09;101498.90;;;7.40;67.05
79591;BME280;69070;51.598;-3.776;2023-04-06T12:09:34;101499.07;;;8.86;71.17
79591;BME280;69070;51.598;-3.776;2023-04-06T12:11:59;101499.83;;;7.88;68.55
79591;BME280;69070;51.598;-3.776;2023-04-06T12:14:24;101511.84;;;6.66;70.66
79591;BME280;69070;51.598;-3.776;2023-04-06T12:16:49;101513.27;;;7.21;71.67
79591;BME280;69070;51.598;-3.776;2023-04-06T12:19:14;101514.86;;;7.21;69.54
79591;BME280;69070;51.598;-3.776;2023-04-06T12:21:39;101527.93;;;7.08;69.81
79591;BME280;69070;51.598;-3.776;2023-04-06T12:24:05;101539.24;;;7.45;67.53
79591;BME280;69070;51.598;-3.776;2023-04-06T12:26:30;101527.61;;;7.13;67.71
79591;BME280;69070;51.598;-3.776;2023-04-06T12:28:54;101527.88;;;7.08;68.71
79591;BME280;69070;51.598;-3.776;2023-04-06T12:31:20;101529.90;;;6.89;69.10
79591;BME280;69070;51.598;-3.776;2023-04-06T12:33:47;101529.18;;;6.77;70.31
79591;BME280;69070;51.598;-3.776;2023-04-06T12:36:12;101534.18;;;7.55;64.86
79591;BME280;69070;51.598;-3.776;2023-04-06T12:38:35;101529.55;;;7.83;62.33